Terminal Aerodrome Forecast
Issued by NWS

Current Version | Previous Version | Graphics & Text | Print | Product List | Glossary On
Versions: 1 2 3 4 5 6 7 8 9 10 11 12 13 14 15 16 17 18 19 20 21 22 23 24 25 26 27 28
000
FTUS41 KRLX 062328
TAFCKB
TAF
KCKB 062328Z 0700/0724 15004KT 6SM -RA OVC024
     FM070400 24005KT P6SM OVC007
     FM070800 27007KT P6SM BKN013
     FM071600 25005KT P6SM BKN040=

USA.gov is the U.S. government's official web portal to all federal, state and local government web resources and services.